Time;durP1;ratioP1;P1;durP2;ratioP2;P2;SDS_P1;SDS_P2;PMS_P1;PMS_P2;Temp;Humidity;BMP_temperature;BMP_pressure;BME280_temperature;BME280_humidity;BME280_pressure;Samples;Min_cycle;Max_cycle;Signal;HPM_P1;HPM_P2
2022/08/20 02:00:01;;;;;;;;;;;;;;;22.15;60.38;99098.50;4686672;26;19974;-92
2022/08/20 02:03:10;;;;;;;;;;;;;;;22.29;60.39;99092.78;4392891;32;20694;-93
2022/08/20 02:05:35;;;;;;;;;;;;;;;22.32;60.38;99084.56;4429938;32;19993;-91
2022/08/20 02:28:26;;;;;;;;;;;;;;;22.49;60.38;99059.16;4969492;26;19978;-90
2022/08/20 02:30:52;;;;;;;;;;;;;;;22.67;60.41;99072.50;4437455;32;20052;-93
2022/08/20 02:33:17;;;;;;;;;;;;;;;22.53;60.40;99079.09;4424775;32;20338;-90
2022/08/20 02:35:44;;;;;;;;;;;;;;;22.60;60.40;99084.66;4448668;32;19986;-91
2022/08/20 02:38:09;;;;;;;;;;;;;;;22.62;60.39;99096.81;4414029;32;20027;-92
2022/08/20 02:40:35;;;;;;;;;;;;;;;22.64;60.39;99101.97;4434878;32;20034;-89
2022/08/20 02:43:08;;;;;;;;;;;;;;;22.60;60.40;99105.91;4410936;32;20009;-92
2022/08/20 02:45:52;;;;;;;;;;;;;;;;;;;;;
2022/08/20 02:48:19;;;;;;;;;;;;;;;22.70;60.40;99089.94;4432998;32;35877;-91
2022/08/20 02:50:58;;;;;;;;;;;;;;;;;;;;;
2022/08/20 02:53:24;;;;;;;;;;;;;;;22.83;60.41;99094.03;4429155;32;36715;-92
2022/08/20 02:55:49;;;;;;;;;;;;;;;22.88;60.42;99102.37;4431435;32;20019;-92
2022/08/20 02:58:41;;;;;;;;;;;;;;;;;;;;;
2022/08/20 03:01:46;;;;;;;;;;;;;;;;;;;;;
2022/08/20 03:05:14;;;;;;;;;;;;;;;22.80;60.42;99106.72;4428473;32;36528;-94
2022/08/20 03:10:27;;;;;;;;;;;;;;;22.60;60.40;99170.41;4377267;32;19991;-92
2022/08/20 03:12:55;;;;;;;;;;;;;;;22.58;60.40;99201.53;4402527;32;19982;-93
2022/08/20 04:12:43;;;;;;;;;;;;;;;22.48;60.39;99199.84;4439172;32;20043;-93
2022/08/20 04:15:12;;;;;;;;;;;;;;;22.50;60.38;99189.94;4434115;32;20340;-94
2022/08/20 04:17:40;;;;;;;;;;;;;;;22.40;60.38;99173.16;4443781;32;19981;-93
2022/08/20 04:20:06;;;;;;;;;;;;;;;22.24;60.37;99153.34;4456842;32;20052;-91
2022/08/20 04:22:31;;;;;;;;;;;;;;;22.25;60.37;99143.59;4443635;32;19988;-94
2022/08/20 04:24:56;;;;;;;;;;;;;;;22.13;60.37;99145.50;4443342;32;20026;-92
2022/08/20 04:27:22;;;;;;;;;;;;;;;22.01;60.36;99154.53;4455860;32;19973;-91
2022/08/20 04:29:47;;;;;;;;;;;;;;;22.22;60.38;99154.44;4455595;32;20452;-91
2022/08/20 04:32:15;;;;;;;;;;;;;;;22.20;60.37;99164.34;4442538;32;20404;-91
2022/08/20 04:34:42;;;;;;;;;;;;;;;22.25;60.37;99164.78;4470167;32;20337;-91
2022/08/20 04:37:07;;;;;;;;;;;;;;;22.40;60.38;99151.97;4454592;32;20020;-91
2022/08/20 04:39:32;;;;;;;;;;;;;;;22.41;60.38;99154.47;4443116;32;20387;-92
2022/08/20 04:41:57;;;;;;;;;;;;;;;22.61;60.40;99164.09;4455713;32;19995;-92
2022/08/20 04:44:23;;;;;;;;;;;;;;;22.20;60.38;99170.47;4443371;32;20003;-92
2022/08/20 04:46:48;;;;;;;;;;;;;;;22.27;60.38;99163.69;4455849;32;19984;-93
2022/08/20 04:49:13;;;;;;;;;;;;;;;22.37;60.38;99155.72;4439709;32;19973;-89
2022/08/20 04:51:39;;;;;;;;;;;;;;;22.53;60.39;99155.19;4449253;32;20008;-90
2022/08/20 04:54:04;;;;;;;;;;;;;;;22.59;60.40;99152.81;4442606;32;20298;-89
2022/08/20 04:56:31;;;;;;;;;;;;;;;22.53;60.39;99160.50;4455849;32;19972;-90
2022/08/20 04:58:57;;;;;;;;;;;;;;;22.58;60.40;99175.00;4456694;32;20029;-90
2022/08/20 05:01:23;;;;;;;;;;;;;;;22.61;60.40;99176.53;4464189;32;19961;-91
2022/08/20 05:03:48;;;;;;;;;;;;;;;22.52;60.39;99188.81;4462462;32;20280;-90
2022/08/20 05:06:14;;;;;;;;;;;;;;;22.65;60.40;99178.75;4457255;32;19981;-90
2022/08/20 05:08:40;;;;;;;;;;;;;;;22.75;60.40;99192.06;4443199;32;20042;-90
2022/08/20 05:11:06;;;;;;;;;;;;;;;22.94;60.41;99176.13;4442652;32;20011;-91
2022/08/20 05:13:31;;;;;;;;;;;;;;;22.98;60.42;99179.34;4439880;32;20012;-89
2022/08/20 05:16:01;;;;;;;;;;;;;;;23.03;60.41;99169.16;4442662;32;19989;-90
2022/08/20 05:18:26;;;;;;;;;;;;;;;23.12;60.43;99168.28;4440719;32;20036;-91
2022/08/20 05:20:52;;;;;;;;;;;;;;;23.06;60.42;99173.34;4452130;32;20005;-92
2022/08/20 05:23:17;;;;;;;;;;;;;;;23.06;60.42;99170.69;4445216;32;19989;-92
2022/08/20 05:25:44;;;;;;;;;;;;;;;23.22;60.43;99171.78;4447606;32;19950;-89
2022/08/20 05:28:11;;;;;;;;;;;;;;;23.13;60.43;99174.44;4445115;32;19974;-93
2022/08/20 05:30:37;;;;;;;;;;;;;;;23.01;60.41;99163.16;4443257;32;20009;-93
2022/08/20 05:33:03;;;;;;;;;;;;;;;22.95;60.41;99169.87;4428421;32;19993;-93
2022/08/20 05:35:28;;;;;;;;;;;;;;;23.16;60.42;99161.69;4428302;32;19991;-90
2022/08/20 05:37:55;;;;;;;;;;;;;;;23.25;60.43;99158.19;4441588;32;19995;-91
2022/08/20 05:40:21;;;;;;;;;;;;;;;23.43;60.43;99152.16;4428147;32;19997;-90
2022/08/20 05:42:46;;;;;;;;;;;;;;;23.64;60.45;99151.94;4440819;32;20016;-91
2022/08/20 05:45:12;;;;;;;;;;;;;;;23.54;60.44;99150.13;4441164;32;19981;-90
2022/08/20 05:47:37;;;;;;;;;;;;;;;23.61;60.45;99147.75;4440124;32;26768;-89
2022/08/20 05:50:04;;;;;;;;;;;;;;;23.68;60.45;99146.19;4441031;32;20352;-90
2022/08/20 05:52:29;;;;;;;;;;;;;;;23.74;60.45;99150.09;4441231;32;20016;-90
2022/08/20 05:54:55;;;;;;;;;;;;;;;23.85;60.46;99153.38;4440880;32;20549;-90
2022/08/20 05:57:20;;;;;;;;;;;;;;;23.88;60.45;99173.50;4439983;32;36820;-90
2022/08/20 05:59:45;;;;;;;;;;;;;;;23.76;60.46;99162.22;4454996;32;20250;-90
2022/08/20 06:04:55;;;;;;;;;;;;;;;23.64;60.45;99165.22;4455367;32;19992;-90
2022/08/20 06:07:20;;;;;;;;;;;;;;;23.59;60.45;99144.41;4440927;32;19997;-89
2022/08/20 06:09:45;;;;;;;;;;;;;;;23.60;60.45;99138.09;4440762;32;19997;-90
2022/08/20 06:12:11;;;;;;;;;;;;;;;23.85;60.46;99150.72;4455060;32;20387;-92
2022/08/20 06:14:36;;;;;;;;;;;;;;;23.75;60.46;99157.91;4440329;32;32431;-90
2022/08/20 06:17:05;;;;;;;;;;;;;;;23.69;60.45;99145.22;4454337;32;24662;-91
2022/08/20 06:19:30;;;;;;;;;;;;;;;23.77;60.46;99155.09;4440883;32;20019;-90
2022/08/20 06:21:55;;;;;;;;;;;;;;;23.61;60.45;99160.19;4440144;32;28593;-91
2022/08/20 06:24:21;;;;;;;;;;;;;;;23.69;60.46;99163.81;4440861;32;19992;-90
2022/08/20 06:26:46;;;;;;;;;;;;;;;23.92;60.47;99171.41;4455093;32;20309;-91
2022/08/20 06:29:11;;;;;;;;;;;;;;;23.86;60.46;99172.81;4427684;32;20664;-90
2022/08/20 06:31:38;;;;;;;;;;;;;;;23.82;60.45;99174.09;4440656;32;20031;-90
2022/08/20 06:34:04;;;;;;;;;;;;;;;23.85;60.46;99179.94;4441112;32;20388;-91
2022/08/20 06:36:29;;;;;;;;;;;;;;;23.80;60.46;99194.66;4440508;32;19989;-90
2022/08/20 06:38:55;;;;;;;;;;;;;;;23.94;60.46;99210.16;4440094;32;28236;-90
2022/08/20 06:41:20;;;;;;;;;;;;;;;23.83;60.46;99224.44;4440873;32;19997;-91
2022/08/20 06:43:45;;;;;;;;;;;;;;;24.01;60.47;99227.16;4440694;32;19985;-92
2022/08/20 06:46:11;;;;;;;;;;;;;;;23.97;60.46;99209.00;4442128;32;19973;-91
2022/08/20 06:48:37;;;;;;;;;;;;;;;24.00;60.47;99206.06;4442600;32;19977;-91
2022/08/20 06:51:03;;;;;;;;;;;;;;;24.02;60.47;99210.22;4442418;32;20273;-91
2022/08/20 06:53:28;;;;;;;;;;;;;;;24.17;60.48;99222.06;4442595;32;20011;-91
2022/08/20 06:55:53;;;;;;;;;;;;;;;24.47;60.49;99233.38;4442379;32;20227;-91
2022/08/20 06:58:19;;;;;;;;;;;;;;;24.57;60.50;99228.00;4443130;32;20008;-91
2022/08/20 07:00:45;;;;;;;;;;;;;;;24.67;60.50;99244.75;4445521;32;19989;-92
2022/08/20 07:03:11;;;;;;;;;;;;;;;24.89;60.51;99243.47;4443819;32;19977;-89
2022/08/20 07:05:37;;;;;;;;;;;;;;;24.94;60.52;99251.81;4442911;32;20342;-91
2022/08/20 07:08:02;;;;;;;;;;;;;;;24.97;60.51;99257.66;4442510;32;20003;-91
2022/08/20 07:10:28;;;;;;;;;;;;;;;24.97;60.52;99262.16;4442390;32;19989;-89
2022/08/20 07:12:53;;;;;;;;;;;;;;;25.05;60.51;99259.59;4442475;32;19995;-92
2022/08/20 07:15:19;;;;;;;;;;;;;;;24.95;60.52;99264.13;4429112;32;31867;-91
2022/08/20 07:17:48;;;;;;;;;;;;;;;24.90;60.51;99256.63;4442206;32;19996;-91
2022/08/20 07:20:14;;;;;;;;;;;;;;;24.77;60.51;99259.63;4443423;32;20063;-91
2022/08/20 07:22:40;;;;;;;;;;;;;;;24.85;60.52;99252.75;4443620;32;20370;-92
2022/08/20 07:25:07;;;;;;;;;;;;;;;24.68;60.49;99257.06;4431140;32;19999;-89
2022/08/20 07:27:32;;;;;;;;;;;;;;;24.58;60.50;99259.78;4458052;32;20314;-88
2022/08/20 07:32:41;;;;;;;;;;;;;;;24.46;60.50;99284.94;4460135;32;19990;-91
2022/08/20 07:35:07;;;;;;;;;;;;;;;24.51;60.49;99282.66;4469882;32;20017;-90
2022/08/20 07:37:40;;;;;;;;;;;;;;;24.46;60.49;99295.56;4445564;32;19982;-91
2022/08/20 07:40:06;;;;;;;;;;;;;;;24.44;60.50;99301.03;4445272;32;20007;-92
2022/08/20 07:42:31;;;;;;;;;;;;;;;24.37;60.48;99321.25;4430698;32;19989;-90
2022/08/20 07:44:57;;;;;;;;;;;;;;;23.92;60.46;99326.41;4430712;32;25655;-91
2022/08/20 07:47:22;;;;;;;;;;;;;;;23.81;60.45;99340.69;4442173;32;19980;-91
2022/08/20 07:49:47;;;;;;;;;;;;;;;23.72;60.45;99343.38;4441808;32;32526;-91
2022/08/20 07:52:12;;;;;;;;;;;;;;;23.76;60.46;99339.47;4428538;32;32134;-91
2022/08/20 07:54:38;;;;;;;;;;;;;;;24.00;60.47;99345.13;4441755;32;20324;-91
2022/08/20 07:57:04;;;;;;;;;;;;;;;23.92;60.46;99357.47;4441797;32;19996;-90
2022/08/20 07:59:29;;;;;;;;;;;;;;;23.93;60.47;99370.63;4442106;32;20258;-91
2022/08/20 08:01:54;;;;;;;;;;;;;;;23.86;60.46;99378.31;4442451;32;20376;-90
2022/08/20 08:04:20;;;;;;;;;;;;;;;23.83;60.46;99399.03;4442761;32;23255;-91
2022/08/20 08:06:45;;;;;;;;;;;;;;;23.77;60.46;99396.94;4442004;32;38451;-90
2022/08/20 08:09:11;;;;;;;;;;;;;;;23.70;60.46;99407.31;4443405;32;20014;-92
2022/08/20 08:11:37;;;;;;;;;;;;;;;23.73;60.45;99396.41;4429529;32;20001;-91
2022/08/20 08:14:03;;;;;;;;;;;;;;;23.94;60.46;99374.97;4442406;32;19969;-91
2022/08/20 08:16:31;;;;;;;;;;;;;;;23.77;60.46;99368.53;4441913;32;19981;-91
2022/08/20 08:18:57;;;;;;;;;;;;;;;23.74;60.46;99382.13;4442860;32;19999;-90
2022/08/20 08:21:22;;;;;;;;;;;;;;;23.63;60.45;99392.88;4442643;32;19977;-89
2022/08/20 08:23:48;;;;;;;;;;;;;;;23.65;60.44;99374.97;4442375;32;19969;-89
2022/08/20 08:26:14;;;;;;;;;;;;;;;23.61;60.45;99372.75;4442266;32;20306;-89
2022/08/20 08:28:40;;;;;;;;;;;;;;;23.65;60.44;99368.81;4442474;32;20008;-89
2022/08/20 08:31:05;;;;;;;;;;;;;;;23.49;60.44;99370.22;4429339;32;20000;-89
2022/08/20 08:33:31;;;;;;;;;;;;;;;23.53;60.45;99376.94;4429390;32;20325;-90
2022/08/20 08:36:02;;;;;;;;;;;;;;;23.40;60.44;99376.34;4429187;32;20004;-90
2022/08/20 08:38:27;;;;;;;;;;;;;;;23.66;60.44;99384.66;4442012;32;20068;-88
2022/08/20 08:40:53;;;;;;;;;;;;;;;23.64;60.45;99375.13;4441902;32;20318;-88
2022/08/20 08:43:20;;;;;;;;;;;;;;;23.51;60.45;99368.25;4455857;32;20366;-88
2022/08/20 08:45:47;;;;;;;;;;;;;;;23.38;60.44;99338.47;4439257;32;19985;-88
2022/08/20 08:48:12;;;;;;;;;;;;;;;23.13;60.43;99317.78;4427111;32;20047;-88
2022/08/20 08:50:38;;;;;;;;;;;;;;;23.16;60.42;99314.84;4413612;32;20019;-88
2022/08/20 08:53:04;;;;;;;;;;;;;;;23.13;60.42;99310.66;4430016;32;20004;-88
2022/08/20 08:55:29;;;;;;;;;;;;;;;23.02;60.42;99307.31;4431713;32;20038;-88
2022/08/20 08:57:55;;;;;;;;;;;;;;;22.87;60.40;99320.97;4427928;32;19996;-88
2022/08/20 09:00:20;;;;;;;;;;;;;;;22.85;60.41;99324.75;4426307;32;20017;-87
2022/08/20 09:02:53;;;;;;;;;;;;;;;22.70;60.40;99323.44;4426359;32;20348;-88
2022/08/20 09:05:18;;;;;;;;;;;;;;;22.84;60.41;99312.47;4426361;32;19990;-88
2022/08/20 09:07:44;;;;;;;;;;;;;;;22.63;60.39;99304.56;4424703;32;33440;-86
2022/08/20 09:10:10;;;;;;;;;;;;;;;22.46;60.39;99300.75;4426845;32;20033;-89
2022/08/20 09:12:35;;;;;;;;;;;;;;;22.37;60.38;99302.41;4426768;32;19996;-88
2022/08/20 09:15:00;;;;;;;;;;;;;;;22.51;60.39;99310.97;4425305;32;38000;-88
2022/08/20 09:17:25;;;;;;;;;;;;;;;22.51;60.39;99329.53;4426002;32;19989;-88
2022/08/20 09:19:51;;;;;;;;;;;;;;;22.67;60.40;99340.47;4426101;32;19974;-88
2022/08/20 09:22:17;;;;;;;;;;;;;;;22.61;60.40;99356.94;4426195;32;20087;-89
2022/08/20 09:24:42;;;;;;;;;;;;;;;22.70;60.40;99365.88;4426361;32;19989;-88
2022/08/20 09:27:07;;;;;;;;;;;;;;;22.65;60.39;99374.25;4425997;32;20039;-88
2022/08/20 09:29:33;;;;;;;;;;;;;;;22.71;60.40;99373.69;4426052;32;20023;-89
2022/08/20 09:32:09;;;;;;;;;;;;;;;22.91;60.41;99364.84;4426289;32;20007;-89
2022/08/20 09:34:37;;;;;;;;;;;;;;;22.92;60.41;99355.06;4426272;32;20048;-88
2022/08/20 09:37:03;;;;;;;;;;;;;;;22.87;60.40;99350.19;4425995;32;19994;-89
2022/08/20 09:39:28;;;;;;;;;;;;;;;22.76;60.40;99347.63;4426189;32;19977;-88
2022/08/20 09:41:53;;;;;;;;;;;;;;;22.69;60.40;99359.72;4426861;32;34845;-89
2022/08/20 09:44:18;;;;;;;;;;;;;;;22.62;60.39;99375.34;4427255;32;20003;-90
2022/08/20 09:46:43;;;;;;;;;;;;;;;22.54;60.39;99369.06;4434749;32;35363;-89
2022/08/20 09:49:09;;;;;;;;;;;;;;;22.35;60.39;99362.69;4455566;32;24215;-90
2022/08/20 09:51:34;;;;;;;;;;;;;;;22.23;60.38;99349.66;4441012;32;28791;-89
2022/08/20 09:54:01;;;;;;;;;;;;;;;22.21;60.38;99344.47;4456049;32;19985;-91
2022/08/20 09:56:26;;;;;;;;;;;;;;;22.20;60.38;99324.25;4429227;32;19993;-89
2022/08/20 09:58:52;;;;;;;;;;;;;;;22.13;60.37;99319.62;4441678;32;19991;-90
2022/08/20 10:01:18;;;;;;;;;;;;;;;22.10;60.38;99288.09;4442040;32;19981;-88
2022/08/20 10:03:43;;;;;;;;;;;;;;;22.09;60.37;99274.00;4441718;32;20323;-88
2022/08/20 10:06:10;;;;;;;;;;;;;;;21.94;60.36;99254.06;4442422;32;19993;-89
2022/08/20 10:08:35;;;;;;;;;;;;;;;21.89;60.36;99251.00;4442070;32;19969;-90
2022/08/20 10:11:00;;;;;;;;;;;;;;;21.83;60.36;99243.59;4429026;32;19992;-89
2022/08/20 10:13:27;;;;;;;;;;;;;;;21.83;60.35;99225.03;4429795;32;30398;-89
2022/08/20 10:15:52;;;;;;;;;;;;;;;21.78;60.35;99222.78;4442614;32;20421;-88
2022/08/20 10:18:17;;;;;;;;;;;;;;;21.86;60.35;99207.06;4442289;32;19973;-91
2022/08/20 10:20:42;;;;;;;;;;;;;;;21.96;60.37;99185.87;4442002;32;19985;-91
2022/08/20 10:23:08;;;;;;;;;;;;;;;22.10;60.38;99193.50;4442689;32;19981;-90
2022/08/20 10:25:33;;;;;;;;;;;;;;;22.32;60.38;99187.97;4442908;32;21564;-88
2022/08/20 10:28:00;;;;;;;;;;;;;;;22.38;60.38;99199.81;4443232;32;20036;-91
2022/08/20 10:30:26;;;;;;;;;;;;;;;22.65;60.39;99207.13;4458105;32;20037;-88
2022/08/20 10:32:51;;;;;;;;;;;;;;;22.73;60.40;99211.75;4444659;32;20335;-87
2022/08/20 10:35:17;;;;;;;;;;;;;;;22.75;60.40;99221.25;4445909;32;20058;-90
2022/08/20 10:37:42;;;;;;;;;;;;;;;22.83;60.41;99229.38;4443163;32;20036;-90
2022/08/20 10:40:08;;;;;;;;;;;;;;;23.16;60.42;99245.81;4442350;32;20018;-91
2022/08/20 10:42:33;;;;;;;;;;;;;;;23.62;60.45;99265.50;4442118;32;19997;-91
2022/08/20 10:44:58;;;;;;;;;;;;;;;23.94;60.46;99279.25;4441252;32;20019;-90
2022/08/20 10:47:24;;;;;;;;;;;;;;;24.33;60.49;99268.47;4440689;32;20007;-91
2022/08/20 10:49:50;;;;;;;;;;;;;;;24.52;60.49;99280.81;4429030;32;19989;-91
2022/08/20 10:52:15;;;;;;;;;;;;;;;24.78;60.51;99273.78;4430352;32;19977;-90
2022/08/20 10:54:41;;;;;;;;;;;;;;;24.97;60.51;99267.47;4427457;32;20007;-89
2022/08/20 10:57:07;;;;;;;;;;;;;;;25.07;60.53;99277.09;4426217;32;19981;-89
2022/08/20 10:59:36;;;;;;;;;;;;;;;25.24;60.52;99282.56;4426405;32;19977;-89
2022/08/20 11:02:01;;;;;;;;;;;;;;;25.47;60.54;99286.41;4426776;32;19996;-90
2022/08/20 11:04:26;;;;;;;;;;;;;;;25.56;60.54;99298.81;4425383;32;28881;-89
2022/08/20 11:06:51;;;;;;;;;;;;;;;25.56;60.55;99305.97;4425449;32;28025;-89
2022/08/20 11:09:17;;;;;;;;;;;;;;;25.38;60.53;99303.34;4426336;32;20035;-90
2022/08/20 11:11:42;;;;;;;;;;;;;;;25.60;60.55;99300.19;4426324;32;30141;-89
2022/08/20 11:14:07;;;;;;;;;;;;;;;25.56;60.54;99304.16;4427416;32;20031;-90
2022/08/20 11:16:32;;;;;;;;;;;;;;;25.84;60.55;99294.22;4430641;32;30011;-90
2022/08/20 11:18:57;;;;;;;;;;;;;;;25.84;60.55;99294.22;4439400;32;19972;-89
2022/08/20 11:21:23;;;;;;;;;;;;;;;26.08;60.56;99290.84;4437408;32;32996;-90
2022/08/20 11:23:48;;;;;;;;;;;;;;;26.08;60.56;99293.50;4450326;32;31240;-89
2022/08/20 11:26:16;;;;;;;;;;;;;;;26.25;60.57;99289.06;4434255;32;20341;-89
2022/08/20 11:28:41;;;;;;;;;;;;;;;26.42;60.58;99292.66;4431835;32;20645;-89
2022/08/20 11:31:06;;;;;;;;;;;;;;;26.58;60.60;99296.25;4429504;32;20137;-89
2022/08/20 11:33:31;;;;;;;;;;;;;;;26.64;60.60;99299.25;4427204;32;30123;-89
2022/08/20 11:35:57;;;;;;;;;;;;;;;26.87;60.61;99286.97;4440916;32;29563;-90
2022/08/20 11:38:22;;;;;;;;;;;;;;;26.94;60.62;99282.63;4414003;32;26057;-90
2022/08/20 11:40:47;;;;;;;;;;;;;;;26.91;60.62;99277.63;4440823;32;29070;-90
2022/08/20 11:43:13;;;;;;;;;;;;;;;26.80;60.60;99283.28;4427503;32;20309;-90
2022/08/20 11:45:38;;;;;;;;;;;;;;;26.52;60.60;99285.37;4416568;32;20028;-90
2022/08/20 11:48:03;;;;;;;;;;;;;;;26.54;60.59;99272.72;4429449;32;20842;-90
2022/08/20 11:50:28;;;;;;;;;;;;;;;26.49;60.60;99270.50;4442422;32;20014;-92
2022/08/20 11:52:54;;;;;;;;;;;;;;;26.60;60.60;99264.88;4443013;32;19999;-90
2022/08/20 11:55:19;;;;;;;;;;;;;;;26.52;60.60;99267.53;4442559;32;20019;-90
2022/08/20 11:57:45;;;;;;;;;;;;;;;26.39;60.59;99266.31;4442069;32;20000;-92
2022/08/20 12:00:13;;;;;;;;;;;;;;;26.42;60.60;99260.66;4442208;32;20026;-92
2022/08/20 12:02:38;;;;;;;;;;;;;;;26.43;60.59;99257.81;4442694;32;20011;-91
2022/08/20 12:05:04;;;;;;;;;;;;;;;26.35;60.59;99262.31;4443619;32;20227;-90
2022/08/20 12:07:29;;;;;;;;;;;;;;;26.38;60.59;99260.16;4443634;32;19999;-90
2022/08/20 12:09:54;;;;;;;;;;;;;;;26.44;60.60;99264.81;4443747;32;19981;-93
2022/08/20 12:12:21;;;;;;;;;;;;;;;26.43;60.60;99259.66;4443041;32;20258;-92
2022/08/20 12:14:46;;;;;;;;;;;;;;;26.39;60.59;99250.31;4442822;32;19982;-91
2022/08/20 12:17:20;;;;;;;;;;;;;;;26.51;60.60;99249.03;4442060;32;20318;-91
2022/08/20 12:19:45;;;;;;;;;;;;;;;26.51;60.60;99239.19;4442542;32;19998;-92
2022/08/20 12:22:10;;;;;;;;;;;;;;;26.59;60.60;99235.69;4442174;32;19974;-91
2022/08/20 12:24:35;;;;;;;;;;;;;;;26.63;60.60;99229.00;4441080;32;35566;-92
2022/08/20 12:27:07;;;;;;;;;;;;;;;26.59;60.60;99231.19;4441693;32;20018;-90
2022/08/20 12:29:33;;;;;;;;;;;;;;;26.61;60.60;99226.50;4456603;32;20036;-92
2022/08/20 12:31:58;;;;;;;;;;;;;;;26.74;60.61;99218.03;4442650;32;20289;-92
2022/08/20 12:34:23;;;;;;;;;;;;;;;26.76;60.61;99210.69;4442611;32;20022;-91
2022/08/20 12:36:48;;;;;;;;;;;;;;;26.75;60.62;99213.53;4455712;32;21877;-90
2022/08/20 12:39:13;;;;;;;;;;;;;;;26.82;60.62;99207.34;4442273;32;19996;-92
2022/08/20 12:41:39;;;;;;;;;;;;;;;26.80;60.61;99205.84;4441297;32;28288;-92
2022/08/20 12:44:05;;;;;;;;;;;;;;;26.83;60.62;99197.50;4432982;32;26818;-91
2022/08/20 12:46:31;;;;;;;;;;;;;;;26.75;60.61;99189.50;4441841;32;19982;-91
2022/08/20 12:48:56;;;;;;;;;;;;;;;26.83;60.62;99184.97;4433924;32;23408;-92
2022/08/20 12:51:24;;;;;;;;;;;;;;;26.85;60.61;99177.63;4448402;32;28131;-91
2022/08/20 12:53:49;;;;;;;;;;;;;;;26.96;60.62;99172.94;4430708;32;19978;-92
2022/08/20 12:56:14;;;;;;;;;;;;;;;27.06;60.63;99171.81;4427141;32;21901;-92
2022/08/20 12:58:39;;;;;;;;;;;;;;;27.09;60.63;99165.31;4413663;32;34558;-91
2022/08/20 13:01:05;;;;;;;;;;;;;;;27.23;60.63;99159.28;4427443;32;24288;-92
2022/08/20 13:03:30;;;;;;;;;;;;;;;27.30;60.64;99154.91;4426324;32;20005;-92
2022/08/20 13:05:55;;;;;;;;;;;;;;;27.36;60.63;99148.03;4426217;32;19999;-93
2022/08/20 13:08:20;;;;;;;;;;;;;;;27.45;60.65;99145.19;4426281;32;22683;-91
2022/08/20 13:10:45;;;;;;;;;;;;;;;27.46;60.65;99148.72;4426278;32;24769;-91
2022/08/20 13:13:11;;;;;;;;;;;;;;;27.42;60.64;99147.34;4427163;32;20003;-91
2022/08/20 13:15:37;;;;;;;;;;;;;;;27.53;60.66;99152.34;4427169;32;19965;-92
2022/08/20 13:18:02;;;;;;;;;;;;;;;27.36;60.65;99154.22;4428956;32;19992;-92
2022/08/20 13:20:27;;;;;;;;;;;;;;;27.47;60.65;99151.22;4426795;32;19993;-92
2022/08/20 13:22:53;;;;;;;;;;;;;;;27.55;60.65;99154.84;4428095;32;19991;-92
2022/08/20 13:25:18;;;;;;;;;;;;;;;27.50;60.65;99160.72;4427302;32;20323;-91
2022/08/20 13:27:43;;;;;;;;;;;;;;;27.25;60.64;99156.44;4426983;32;20030;-92
2022/08/20 13:30:10;;;;;;;;;;;;;;;27.37;60.65;99153.22;4426785;32;19997;-92
2022/08/20 13:32:35;;;;;;;;;;;;;;;27.36;60.63;99153.38;4427032;32;19977;-92
2022/08/20 13:35:01;;;;;;;;;;;;;;;27.25;60.64;99151.94;4426697;32;20023;-92
2022/08/20 13:37:26;;;;;;;;;;;;;;;27.24;60.63;99146.75;4426578;32;19989;-91
2022/08/20 13:39:56;;;;;;;;;;;;;;;26.97;60.62;99151.41;4427578;32;19989;-91
2022/08/20 13:42:21;;;;;;;;;;;;;;;27.08;60.63;99147.59;4431450;32;19966;-91
2022/08/20 13:44:46;;;;;;;;;;;;;;;27.05;60.63;99151.44;4412597;32;32121;-93
2022/08/20 13:47:15;;;;;;;;;;;;;;;26.95;60.62;99150.75;4438000;32;19981;-92
2022/08/20 13:49:40;;;;;;;;;;;;;;;26.85;60.62;99156.28;4441520;32;19993;-91
2022/08/20 13:52:05;;;;;;;;;;;;;;;26.81;60.62;99162.94;4441381;32;20402;-92
2022/08/20 13:54:30;;;;;;;;;;;;;;;26.89;60.63;99172.78;4440803;32;36154;-92
2022/08/20 13:57:05;;;;;;;;;;;;;;;26.88;60.61;99176.47;4440838;32;36030;-92
2022/08/20 13:59:33;;;;;;;;;;;;;;;26.96;60.63;99184.47;4455864;32;20000;-91
2022/08/20 14:01:58;;;;;;;;;;;;;;;26.80;60.61;99187.16;4441803;32;20004;-93
2022/08/20 14:04:23;;;;;;;;;;;;;;;26.46;60.60;99185.44;4441707;32;19985;-92
2022/08/20 14:06:48;;;;;;;;;;;;;;;26.32;60.59;99186.06;4440736;32;26478;-93
2022/08/20 14:09:14;;;;;;;;;;;;;;;26.54;60.60;99180.13;4441305;32;22613;-92
2022/08/20 14:11:39;;;;;;;;;;;;;;;26.45;60.60;99166.91;4442100;32;19981;-92
2022/08/20 14:14:04;;;;;;;;;;;;;;;26.43;60.60;99143.06;4441571;32;23413;-92
2022/08/20 14:16:30;;;;;;;;;;;;;;;26.50;60.61;99135.22;4442257;32;20000;-92
2022/08/20 14:18:55;;;;;;;;;;;;;;;26.40;60.59;99134.56;4441340;32;20047;-93
2022/08/20 14:21:20;;;;;;;;;;;;;;;26.24;60.59;99154.81;4441434;32;19974;-92
2022/08/20 14:23:45;;;;;;;;;;;;;;;26.25;60.60;99164.50;4440946;32;20241;-92
2022/08/20 14:26:11;;;;;;;;;;;;;;;26.45;60.60;99164.25;4441250;32;19993;-92
2022/08/20 14:28:36;;;;;;;;;;;;;;;26.55;60.60;99157.75;4441268;32;19993;-92
2022/08/20 14:31:02;;;;;;;;;;;;;;;26.47;60.60;99156.91;4441743;32;24574;-92
2022/08/20 14:33:27;;;;;;;;;;;;;;;26.40;60.59;99156.72;4441816;32;19986;-92
2022/08/20 14:35:53;;;;;;;;;;;;;;;26.23;60.59;99161.16;4440768;32;20302;-91
2022/08/20 14:38:18;;;;;;;;;;;;;;;26.38;60.60;99150.72;4441110;32;20027;-91
2022/08/20 14:40:43;;;;;;;;;;;;;;;26.45;60.60;99146.38;4441112;32;20016;-92
2022/08/20 14:43:09;;;;;;;;;;;;;;;26.47;60.60;99147.06;4440997;32;23458;-92
2022/08/20 14:45:34;;;;;;;;;;;;;;;26.70;60.61;99152.59;4442206;32;28103;-91
2022/08/20 14:47:59;;;;;;;;;;;;;;;26.56;60.62;99142.59;4434706;32;24866;-93
2022/08/20 14:50:29;;;;;;;;;;;;;;;26.62;60.61;99137.41;4447898;32;19977;-91
2022/08/20 14:52:54;;;;;;;;;;;;;;;26.75;60.61;99142.25;4441511;32;19984;-91
2022/08/20 14:55:20;;;;;;;;;;;;;;;26.95;60.62;99136.56;4440871;32;20387;-91
2022/08/20 14:57:45;;;;;;;;;;;;;;;27.01;60.62;99136.78;4441288;32;20004;-92
2022/08/20 15:00:16;;;;;;;;;;;;;;;26.87;60.63;99151.59;4427765;32;19996;-92
2022/08/20 15:02:41;;;;;;;;;;;;;;;26.82;60.62;99153.09;4440767;32;20273;-93
2022/08/20 15:05:07;;;;;;;;;;;;;;;26.86;60.62;99160.59;4428032;32;20040;-93
2022/08/20 15:07:33;;;;;;;;;;;;;;;26.92;60.63;99162.59;4442917;32;20282;-93
2022/08/20 15:09:59;;;;;;;;;;;;;;;27.02;60.63;99158.97;4442885;32;20324;-92
2022/08/20 15:12:24;;;;;;;;;;;;;;;26.96;60.63;99160.41;4442764;32;19981;-93
2022/08/20 15:14:49;;;;;;;;;;;;;;;27.03;60.63;99161.47;4443338;32;20008;-91
2022/08/20 15:17:19;;;;;;;;;;;;;;;26.89;60.63;99164.78;4444702;32;19997;-92
2022/08/20 15:19:44;;;;;;;;;;;;;;;26.89;60.63;99168.28;4445343;32;20043;-92
2022/08/20 15:22:09;;;;;;;;;;;;;;;26.98;60.62;99161.13;4443695;32;20346;-92
2022/08/20 15:24:34;;;;;;;;;;;;;;;26.92;60.62;99162.59;4443220;32;20046;-91
2022/08/20 15:27:08;;;;;;;;;;;;;;;26.98;60.63;99165.63;4436731;32;24435;-94
2022/08/20 15:29:34;;;;;;;;;;;;;;;26.82;60.62;99156.59;4443886;32;20407;-92
2022/08/20 15:31:59;;;;;;;;;;;;;;;26.83;60.62;99170.78;4443583;32;20085;-92
2022/08/20 15:34:24;;;;;;;;;;;;;;;26.60;60.61;99168.78;4430862;32;20322;-91
2022/08/20 15:36:50;;;;;;;;;;;;;;;26.69;60.61;99166.09;4444345;32;19989;-92
2022/08/20 15:39:15;;;;;;;;;;;;;;;26.71;60.62;99166.75;4445357;32;19985;-91
2022/08/20 15:41:40;;;;;;;;;;;;;;;26.67;60.61;99168.09;4451182;32;26977;-92
2022/08/20 15:44:06;;;;;;;;;;;;;;;26.58;60.61;99168.09;4457011;32;19979;-92
2022/08/20 15:46:31;;;;;;;;;;;;;;;26.65;60.62;99175.44;4453690;32;19989;-93
2022/08/20 15:48:56;;;;;;;;;;;;;;;26.63;60.61;99172.94;4439081;32;20710;-93
2022/08/20 15:51:24;;;;;;;;;;;;;;;26.65;60.62;99170.94;4434751;32;20000;-93
2022/08/20 15:53:53;;;;;;;;;;;;;;;26.70;60.62;99168.59;4429585;32;19974;-93
2022/08/20 15:56:22;;;;;;;;;;;;;;;26.67;60.61;99173.44;4427585;32;20008;-92
2022/08/20 15:58:51;;;;;;;;;;;;;;;26.82;60.62;99171.78;4441558;32;19970;-93
2022/08/20 16:01:24;;;;;;;;;;;;;;;26.82;60.62;99183.31;4427783;32;19989;-92
2022/08/20 16:03:49;;;;;;;;;;;;;;;26.83;60.63;99179.63;4427221;32;19989;-92
2022/08/20 16:06:15;;;;;;;;;;;;;;;26.97;60.63;99175.44;4429271;32;19993;-94
2022/08/20 16:08:41;;;;;;;;;;;;;;;27.05;60.63;99178.16;4428580;32;19992;-93
2022/08/20 16:11:12;;;;;;;;;;;;;;;26.97;60.63;99180.78;4441938;32;19966;-91